createdAt,value
2023-03-03T00:01:33.552Z,1012
2023-03-03T00:06:39.656Z,1011.9
2023-03-03T00:11:45.734Z,1011.9
2023-03-03T00:16:51.830Z,1012
2023-03-03T00:21:57.932Z,1012
2023-03-03T00:27:04.042Z,1012
2023-03-03T00:32:10.136Z,1012
2023-03-03T00:37:16.229Z,1011.8
2023-03-03T00:42:22.329Z,1011.9
2023-03-03T00:47:28.451Z,1011.9
2023-03-03T00:52:34.533Z,1012
2023-03-03T00:57:40.641Z,1012
2023-03-03T01:02:46.747Z,1011.9
2023-03-03T01:07:51.848Z,1012
2023-03-03T01:12:57.943Z,1011.9
2023-03-03T01:18:04.054Z,1011.8
2023-03-03T01:23:10.134Z,1011.8
2023-03-03T01:28:16.245Z,1011.7
2023-03-03T01:33:22.337Z,1011.8
2023-03-03T01:38:28.438Z,1011.8
2023-03-03T01:43:34.541Z,1011.6
2023-03-03T01:48:40.651Z,1011.7
2023-03-03T01:53:46.736Z,1011.7
2023-03-03T01:58:52.892Z,1011.8
2023-03-03T02:03:58.916Z,1011.8
2023-03-03T02:09:05.027Z,1011.9
2023-03-03T02:14:10.159Z,1011.8
2023-03-03T02:19:16.247Z,1011.9
2023-03-03T02:24:22.354Z,1011.9
2023-03-03T02:29:28.437Z,1011.9
2023-03-03T02:34:34.558Z,1011.9
2023-03-03T02:39:40.645Z,1011.9
2023-03-03T02:44:46.743Z,1012
2023-03-03T02:49:52.841Z,1011.9
2023-03-03T02:54:59.018Z,1011.6
2023-03-03T03:00:05.041Z,1011.6
2023-03-03T03:05:11.152Z,1011.5
2023-03-03T03:10:17.297Z,1011.4
2023-03-03T03:15:23.338Z,1011.6
2023-03-03T03:20:28.442Z,1011.5
2023-03-03T03:25:34.544Z,1011.6
2023-03-03T03:30:40.636Z,1011.8
2023-03-03T03:35:46.747Z,1011.8
2023-03-03T03:40:52.856Z,1011.8
2023-03-03T03:45:58.949Z,1011.7
2023-03-03T03:51:05.104Z,1011.8
2023-03-03T03:56:11.184Z,1011.8
2023-03-03T04:01:17.251Z,1011.8
2023-03-03T04:06:23.348Z,1012
2023-03-03T04:11:29.441Z,1012
2023-03-03T04:16:35.607Z,1012
2023-03-03T04:21:41.635Z,1012
2023-03-03T04:26:46.750Z,1012
2023-03-03T04:31:52.861Z,1012
2023-03-03T04:36:58.956Z,1012
2023-03-03T04:42:05.049Z,1012.1
2023-03-03T04:47:11.146Z,1012.1
2023-03-03T04:52:17.249Z,1012.1
2023-03-03T04:57:23.360Z,1012.1
2023-03-03T05:02:29.459Z,1012.1
2023-03-03T05:07:35.543Z,1012.2
2023-03-03T05:12:41.660Z,1012.3
2023-03-03T05:17:47.733Z,1012.2
2023-03-03T05:22:54.055Z,1012.2
2023-03-03T05:27:59.941Z,1012.3
2023-03-03T05:33:05.037Z,1012.2
2023-03-03T05:38:11.147Z,1012.2
2023-03-03T05:43:17.292Z,1012.2
2023-03-03T05:48:23.347Z,1012.1
2023-03-03T05:53:29.456Z,1012.1
2023-03-03T05:58:35.573Z,1012.1
2023-03-03T06:03:41.651Z,1012.3
2023-03-03T06:08:47.738Z,1012.3
2023-03-03T06:13:53.855Z,1012.4
2023-03-03T06:18:59.946Z,1012.4
2023-03-03T06:24:06.050Z,1012.4
2023-03-03T06:29:12.151Z,1012.4
2023-03-03T06:34:18.242Z,1012.4
2023-03-03T06:39:23.354Z,1012.4
2023-03-03T06:44:29.510Z,1012.5
2023-03-03T06:49:35.557Z,1012.4
2023-03-03T06:54:41.640Z,1012.6
2023-03-03T06:59:47.777Z,1012.6
2023-03-03T07:04:53.858Z,1012.8
2023-03-03T07:10:00.023Z,1012.8
2023-03-03T07:15:06.180Z,1012.7
2023-03-03T07:20:12.174Z,1012.7
2023-03-03T07:25:18.250Z,1012.7
2023-03-03T07:30:24.347Z,1012.8
2023-03-03T07:35:30.496Z,1013
2023-03-03T07:40:36.596Z,1013
2023-03-03T07:45:41.697Z,1013
2023-03-03T07:50:47.778Z,1013
2023-03-03T07:55:53.923Z,1013.2
2023-03-03T08:00:59.967Z,1013.1
2023-03-03T08:06:06.070Z,1013.2
2023-03-03T08:11:12.331Z,1013.1
2023-03-03T08:16:18.334Z,1013.1
2023-03-03T08:21:24.497Z,1013
2023-03-03T08:26:30.519Z,1013
2023-03-03T08:31:36.573Z,1013.1
2023-03-03T08:36:42.678Z,1013
2023-03-03T08:41:48.862Z,1013.2
2023-03-03T08:46:54.869Z,1013.2
2023-03-03T08:52:00.108Z,1013.2
2023-03-03T08:57:06.071Z,1013.2
2023-03-03T09:02:12.158Z,1013.3
2023-03-03T09:07:18.281Z,1013.2
2023-03-03T09:12:24.418Z,1013.3
2023-03-03T09:17:30.512Z,1013.3
2023-03-03T09:22:36.600Z,1013.3
2023-03-03T09:27:42.668Z,1013.2
2023-03-03T09:32:48.803Z,1013.3
2023-03-03T09:37:54.855Z,1013.3
2023-03-03T09:43:00.959Z,1013.3
2023-03-03T09:48:07.050Z,1013.4
2023-03-03T09:53:13.185Z,1013.4
2023-03-03T09:58:18.310Z,1013.2
2023-03-03T10:03:24.392Z,1013.2
2023-03-03T10:08:30.443Z,1013.3
2023-03-03T10:13:36.538Z,1013.3
2023-03-03T10:18:42.684Z,1013.4
2023-03-03T10:23:48.736Z,1013.5
2023-03-03T10:28:54.857Z,1013.4
2023-03-03T10:34:00.942Z,1013.4
2023-03-03T10:39:07.161Z,1013.2
2023-03-03T10:44:13.169Z,1013.3
2023-03-03T10:49:19.236Z,1013.3
2023-03-03T10:54:25.323Z,1013.3
2023-03-03T10:59:31.420Z,1013.4
2023-03-03T11:04:36.663Z,1013.3
2023-03-03T11:09:42.630Z,1013.3
2023-03-03T11:14:48.726Z,1013.2
2023-03-03T11:19:54.849Z,1013.2
2023-03-03T11:25:00.920Z,1013.1
2023-03-03T11:30:07.030Z,1013.3
2023-03-03T11:35:13.209Z,1013.2
2023-03-03T11:40:19.213Z,1013.1
2023-03-03T11:45:25.327Z,1013.2
2023-03-03T11:50:31.405Z,1013.2
2023-03-03T11:55:37.512Z,1013.2
2023-03-03T12:00:43.632Z,1013.2
2023-03-03T12:05:49.696Z,1013.1
2023-03-03T12:10:54.845Z,1013.1
2023-03-03T12:16:00.903Z,1013.1
2023-03-03T12:21:07.009Z,1013.1
2023-03-03T12:26:13.119Z,1012.9
2023-03-03T12:31:19.203Z,1012.9
2023-03-03T12:36:25.305Z,1012.9
2023-03-03T12:41:31.423Z,1012.9
2023-03-03T12:46:37.532Z,1012.8
2023-03-03T12:51:43.660Z,1012.8
2023-03-03T12:56:49.733Z,1012.8
2023-03-03T13:01:55.793Z,1012.8
2023-03-03T13:07:01.898Z,1012.7
2023-03-03T13:12:07.984Z,1012.7
2023-03-03T13:17:13.114Z,1012.6
2023-03-03T13:22:19.214Z,1012.7
2023-03-03T13:27:25.309Z,1012.7
2023-03-03T13:32:31.393Z,1012.7
2023-03-03T13:37:37.484Z,1012.7
2023-03-03T13:42:43.726Z,1012.6
2023-03-03T13:47:49.837Z,1012.5
2023-03-03T13:52:55.787Z,1012.5
2023-03-03T13:58:01.881Z,1012.4
2023-03-03T14:03:08.145Z,1012.4
2023-03-03T14:08:14.072Z,1012.3
2023-03-03T14:13:20.200Z,1012.3
2023-03-03T14:18:26.287Z,1012.3
2023-03-03T14:23:31.390Z,1012.1
2023-03-03T14:28:37.479Z,1012.1
2023-03-03T14:33:43.574Z,1012
2023-03-03T14:38:49.687Z,1012
2023-03-03T14:43:55.787Z,1011.9
2023-03-03T14:49:01.876Z,1012
2023-03-03T14:54:07.974Z,1011.9
2023-03-03T14:59:14.067Z,1012
2023-03-03T15:04:20.166Z,1012
2023-03-03T15:09:26.409Z,1011.9
2023-03-03T15:14:32.365Z,1011.8
2023-03-03T15:19:38.462Z,1011.8
2023-03-03T15:24:44.582Z,1011.9
2023-03-03T15:29:49.672Z,1011.9
2023-03-03T15:34:55.774Z,1011.9
2023-03-03T15:40:01.874Z,1011.9
2023-03-03T15:45:07.966Z,1011.8
2023-03-03T15:50:14.042Z,1011.8
2023-03-03T15:55:20.145Z,1011.8
2023-03-03T16:00:25.276Z,1011.7
2023-03-03T16:05:31.359Z,1011.7
2023-03-03T16:10:37.464Z,1011.7
2023-03-03T16:15:43.637Z,1011.7
2023-03-03T16:25:55.768Z,1011.7
2023-03-03T16:31:01.865Z,1011.7
2023-03-03T16:36:07.953Z,1011.7
2023-03-03T16:41:14.238Z,1011.8
2023-03-03T16:46:20.154Z,1011.8
2023-03-03T16:51:26.251Z,1011.8
2023-03-03T16:56:32.345Z,1011.8
2023-03-03T17:01:38.482Z,1011.8
2023-03-03T17:06:43.555Z,1011.8
2023-03-03T17:11:49.721Z,1011.9
2023-03-03T17:16:55.772Z,1011.8
2023-03-03T17:22:01.917Z,1011.9
2023-03-03T17:27:07.954Z,1011.8
2023-03-03T17:32:14.028Z,1011.8
2023-03-03T17:37:20.131Z,1011.9
2023-03-03T17:42:26.236Z,1011.8
2023-03-03T17:47:32.346Z,1011.7
2023-03-03T17:52:38.429Z,1011.8
2023-03-03T17:57:44.518Z,1011.8
2023-03-03T18:02:50.611Z,1011.8
2023-03-03T18:07:56.863Z,1011.7
2023-03-03T18:13:01.922Z,1011.8
2023-03-03T18:18:07.933Z,1011.9
2023-03-03T18:23:14.104Z,1011.9
2023-03-03T18:28:20.137Z,1011.9
2023-03-03T18:33:26.287Z,1011.8
2023-03-03T18:38:32.456Z,1011.8
2023-03-03T18:43:38.431Z,1011.8
2023-03-03T18:48:44.537Z,1011.9
2023-03-03T18:53:50.704Z,1012
2023-03-03T19:04:02.822Z,1012
2023-03-03T19:09:08.958Z,1012
2023-03-03T19:14:15.040Z,1012
2023-03-03T19:19:20.126Z,1012
2023-03-03T19:24:26.248Z,1012
2023-03-03T19:29:32.343Z,1012
2023-03-03T19:34:38.458Z,1012
2023-03-03T19:39:44.528Z,1012
2023-03-03T19:44:50.632Z,1012.1
2023-03-03T19:49:56.758Z,1012
2023-03-03T19:55:02.822Z,1012.1
2023-03-03T20:00:08.942Z,1012
2023-03-03T20:05:15.051Z,1012.1
2023-03-03T20:10:21.151Z,1012.1
2023-03-03T20:15:27.252Z,1012.1
2023-03-03T20:20:33.338Z,1012.2
2023-03-03T20:25:38.436Z,1012.1
2023-03-03T20:30:44.545Z,1012.2
2023-03-03T20:35:50.637Z,1012.2
2023-03-03T20:40:56.751Z,1012.3
2023-03-03T20:46:02.848Z,1012.2
2023-03-03T20:51:08.936Z,1012.2
2023-03-03T20:56:15.044Z,1012.3
2023-03-03T21:01:21.144Z,1012.2
2023-03-03T21:06:27.249Z,1012.2
2023-03-03T21:11:33.340Z,1012.2
2023-03-03T21:16:39.434Z,1012.2
2023-03-03T21:21:45.559Z,1012.1
2023-03-03T21:26:51.638Z,1012.1
2023-03-03T21:31:56.759Z,1012.1
2023-03-03T21:37:02.879Z,1012
2023-03-03T21:42:08.946Z,1011.9
2023-03-03T21:47:15.031Z,1011.8
2023-03-03T21:52:21.143Z,1011.7
2023-03-03T21:57:27.242Z,1011.7
2023-03-03T22:02:33.358Z,1011.7
2023-03-03T22:07:39.548Z,1011.6
2023-03-03T22:12:45.537Z,1011.5
2023-03-03T22:17:51.653Z,1011.5
2023-03-03T22:22:57.755Z,1011.5
2023-03-03T22:28:03.831Z,1011.5
2023-03-03T22:33:09.951Z,1011.5
2023-03-03T22:38:15.064Z,1011.4
2023-03-03T22:43:21.164Z,1011.4
2023-03-03T22:48:27.274Z,1011.3
2023-03-03T22:53:33.373Z,1011.4
2023-03-03T22:58:39.466Z,1011.4
2023-03-03T23:03:45.584Z,1011.4
2023-03-03T23:08:51.669Z,1011.4
2023-03-03T23:13:57.766Z,1011.2
2023-03-03T23:19:03.855Z,1011.2
2023-03-03T23:24:09.958Z,1011.2
2023-03-03T23:29:16.059Z,1011.1
2023-03-03T23:34:22.141Z,1010.9
2023-03-03T23:39:28.257Z,1011
2023-03-03T23:44:33.373Z,1010.9
2023-03-03T23:54:45.560Z,1010.9
2023-03-03T23:59:51.650Z,1010.8
